sensor_id;sensor_type;location;lat;lon;timestamp;P1;durP1;ratioP1;P2;durP2;ratioP2
14076;SDS011;7114;51.100;13.998;2022-12-08T00:02:16;9.30;;;2.50;;
14076;SDS011;7114;51.100;13.998;2022-12-08T00:04:43;8.48;;;2.10;;
14076;SDS011;7114;51.100;13.998;2022-12-08T00:07:23;11.82;;;2.22;;
14076;SDS011;7114;51.100;13.998;2022-12-08T00:10:07;10.55;;;2.40;;
14076;SDS011;7114;51.100;13.998;2022-12-08T00:12:34;9.77;;;2.00;;
14076;SDS011;7114;51.100;13.998;2022-12-08T00:15:02;10.38;;;2.15;;
14076;SDS011;7114;51.100;13.998;2022-12-08T00:17:29;9.73;;;2.42;;
14076;SDS011;7114;51.100;13.998;2022-12-08T00:19:55;8.48;;;2.17;;
14076;SDS011;7114;51.100;13.998;2022-12-08T00:22:21;10.43;;;2.70;;
14076;SDS011;7114;51.100;13.998;2022-12-08T00:24:48;9.93;;;2.47;;
14076;SDS011;7114;51.100;13.998;2022-12-08T00:27:14;11.55;;;2.70;;
14076;SDS011;7114;51.100;13.998;2022-12-08T00:29:42;11.35;;;2.70;;
14076;SDS011;7114;51.100;13.998;2022-12-08T00:32:10;13.07;;;2.55;;
14076;SDS011;7114;51.100;13.998;2022-12-08T00:34:36;10.13;;;2.95;;
14076;SDS011;7114;51.100;13.998;2022-12-08T00:37:03;9.13;;;2.70;;
14076;SDS011;7114;51.100;13.998;2022-12-08T00:39:29;11.15;;;2.67;;
14076;SDS011;7114;51.100;13.998;2022-12-08T00:41:55;8.50;;;2.17;;
14076;SDS011;7114;51.100;13.998;2022-12-08T00:44:37;10.98;;;2.78;;
14076;SDS011;7114;51.100;13.998;2022-12-08T00:47:04;9.77;;;2.60;;
14076;SDS011;7114;51.100;13.998;2022-12-08T00:49:31;8.17;;;2.27;;
14076;SDS011;7114;51.100;13.998;2022-12-08T00:51:58;9.65;;;2.63;;
14076;SDS011;7114;51.100;13.998;2022-12-08T00:54:24;16.08;;;3.03;;
14076;SDS011;7114;51.100;13.998;2022-12-08T00:56:51;8.80;;;2.33;;
14076;SDS011;7114;51.100;13.998;2022-12-08T00:59:17;9.10;;;2.50;;
14076;SDS011;7114;51.100;13.998;2022-12-08T01:01:44;9.20;;;2.37;;
14076;SDS011;7114;51.100;13.998;2022-12-08T01:04:11;9.30;;;1.98;;
14076;SDS011;7114;51.100;13.998;2022-12-08T01:06:40;9.70;;;2.30;;
14076;SDS011;7114;51.100;13.998;2022-12-08T01:09:07;8.30;;;2.28;;
14076;SDS011;7114;51.100;13.998;2022-12-08T01:11:35;9.65;;;2.40;;
14076;SDS011;7114;51.100;13.998;2022-12-08T01:14:01;9.07;;;2.40;;
14076;SDS011;7114;51.100;13.998;2022-12-08T01:16:29;9.43;;;2.67;;
14076;SDS011;7114;51.100;13.998;2022-12-08T01:18:57;9.82;;;2.22;;
14076;SDS011;7114;51.100;13.998;2022-12-08T01:21:24;10.32;;;2.53;;
14076;SDS011;7114;51.100;13.998;2022-12-08T01:23:52;10.52;;;2.40;;
14076;SDS011;7114;51.100;13.998;2022-12-08T01:26:18;9.00;;;2.10;;
14076;SDS011;7114;51.100;13.998;2022-12-08T01:28:45;13.32;;;2.60;;
14076;SDS011;7114;51.100;13.998;2022-12-08T01:31:13;8.60;;;2.30;;
14076;SDS011;7114;51.100;13.998;2022-12-08T01:33:40;9.27;;;2.50;;
14076;SDS011;7114;51.100;13.998;2022-12-08T01:36:07;8.55;;;2.53;;
14076;SDS011;7114;51.100;13.998;2022-12-08T01:38:35;8.23;;;2.13;;
14076;SDS011;7114;51.100;13.998;2022-12-08T01:41:02;10.00;;;2.30;;
14076;SDS011;7114;51.100;13.998;2022-12-08T01:43:52;9.77;;;2.50;;
14076;SDS011;7114;51.100;13.998;2022-12-08T01:46:21;8.82;;;2.20;;
14076;SDS011;7114;51.100;13.998;2022-12-08T01:48:47;10.57;;;2.30;;
14076;SDS011;7114;51.100;13.998;2022-12-08T01:51:15;11.37;;;2.10;;
14076;SDS011;7114;51.100;13.998;2022-12-08T01:53:41;9.57;;;2.20;;
14076;SDS011;7114;51.100;13.998;2022-12-08T01:56:10;9.82;;;2.08;;
14076;SDS011;7114;51.100;13.998;2022-12-08T01:58:41;9.60;;;1.90;;
14076;SDS011;7114;51.100;13.998;2022-12-08T02:01:09;8.88;;;2.25;;
14076;SDS011;7114;51.100;13.998;2022-12-08T02:03:37;8.77;;;2.20;;
14076;SDS011;7114;51.100;13.998;2022-12-08T02:06:06;8.98;;;2.03;;
14076;SDS011;7114;51.100;13.998;2022-12-08T02:08:33;7.70;;;1.98;;
14076;SDS011;7114;51.100;13.998;2022-12-08T02:11:00;9.23;;;2.08;;
14076;SDS011;7114;51.100;13.998;2022-12-08T02:13:28;9.48;;;2.10;;
14076;SDS011;7114;51.100;13.998;2022-12-08T02:15:58;10.93;;;2.47;;
14076;SDS011;7114;51.100;13.998;2022-12-08T02:18:34;9.75;;;2.13;;
14076;SDS011;7114;51.100;13.998;2022-12-08T02:21:09;8.90;;;2.08;;
14076;SDS011;7114;51.100;13.998;2022-12-08T02:23:40;9.27;;;2.20;;
14076;SDS011;7114;51.100;13.998;2022-12-08T02:26:31;8.65;;;2.33;;
14076;SDS011;7114;51.100;13.998;2022-12-08T02:29:19;9.17;;;2.13;;
14076;SDS011;7114;51.100;13.998;2022-12-08T02:32:11;10.75;;;2.00;;
14076;SDS011;7114;51.100;13.998;2022-12-08T02:34:46;9.63;;;2.38;;
14076;SDS011;7114;51.100;13.998;2022-12-08T02:37:15;10.88;;;2.38;;
14076;SDS011;7114;51.100;13.998;2022-12-08T02:39:47;9.60;;;2.33;;
14076;SDS011;7114;51.100;13.998;2022-12-08T02:42:21;9.60;;;2.60;;
14076;SDS011;7114;51.100;13.998;2022-12-08T02:44:52;9.70;;;2.28;;
14076;SDS011;7114;51.100;13.998;2022-12-08T02:47:22;10.15;;;2.47;;
14076;SDS011;7114;51.100;13.998;2022-12-08T02:49:50;9.50;;;2.25;;
14076;SDS011;7114;51.100;13.998;2022-12-08T02:52:37;12.23;;;2.65;;
14076;SDS011;7114;51.100;13.998;2022-12-08T02:55:05;10.90;;;2.67;;
14076;SDS011;7114;51.100;13.998;2022-12-08T02:57:36;9.75;;;2.67;;
14076;SDS011;7114;51.100;13.998;2022-12-08T03:00:11;8.85;;;2.30;;
14076;SDS011;7114;51.100;13.998;2022-12-08T03:02:41;10.38;;;2.50;;
14076;SDS011;7114;51.100;13.998;2022-12-08T03:05:15;10.23;;;2.50;;
14076;SDS011;7114;51.100;13.998;2022-12-08T03:07:49;10.07;;;2.70;;
14076;SDS011;7114;51.100;13.998;2022-12-08T03:10:20;11.80;;;2.50;;
14076;SDS011;7114;51.100;13.998;2022-12-08T03:12:51;9.38;;;2.63;;
14076;SDS011;7114;51.100;13.998;2022-12-08T03:15:21;12.10;;;2.90;;
14076;SDS011;7114;51.100;13.998;2022-12-08T03:17:49;10.80;;;3.10;;
14076;SDS011;7114;51.100;13.998;2022-12-08T03:20:19;10.30;;;3.10;;
14076;SDS011;7114;51.100;13.998;2022-12-08T03:22:47;9.88;;;2.80;;
14076;SDS011;7114;51.100;13.998;2022-12-08T03:25:14;9.55;;;2.58;;
14076;SDS011;7114;51.100;13.998;2022-12-08T03:27:42;10.32;;;2.70;;
14076;SDS011;7114;51.100;13.998;2022-12-08T03:30:09;10.82;;;2.75;;
14076;SDS011;7114;51.100;13.998;2022-12-08T03:32:37;9.67;;;2.60;;
14076;SDS011;7114;51.100;13.998;2022-12-08T03:35:10;10.35;;;2.28;;
14076;SDS011;7114;51.100;13.998;2022-12-08T03:37:40;10.02;;;2.55;;
14076;SDS011;7114;51.100;13.998;2022-12-08T03:40:08;8.98;;;2.47;;
14076;SDS011;7114;51.100;13.998;2022-12-08T03:42:36;10.10;;;2.50;;
14076;SDS011;7114;51.100;13.998;2022-12-08T03:45:03;9.90;;;2.70;;
14076;SDS011;7114;51.100;13.998;2022-12-08T03:47:30;11.60;;;3.05;;
14076;SDS011;7114;51.100;13.998;2022-12-08T03:49:56;9.52;;;2.42;;
14076;SDS011;7114;51.100;13.998;2022-12-08T03:52:23;10.10;;;2.50;;
14076;SDS011;7114;51.100;13.998;2022-12-08T03:54:50;8.70;;;2.78;;
14076;SDS011;7114;51.100;13.998;2022-12-08T03:57:17;8.97;;;2.60;;
14076;SDS011;7114;51.100;13.998;2022-12-08T03:59:43;9.90;;;2.60;;
14076;SDS011;7114;51.100;13.998;2022-12-08T04:02:09;10.30;;;2.47;;
14076;SDS011;7114;51.100;13.998;2022-12-08T04:04:36;9.50;;;2.55;;
14076;SDS011;7114;51.100;13.998;2022-12-08T04:07:02;10.27;;;2.35;;
14076;SDS011;7114;51.100;13.998;2022-12-08T04:09:28;10.77;;;2.83;;
14076;SDS011;7114;51.100;13.998;2022-12-08T04:11:56;9.60;;;2.67;;
14076;SDS011;7114;51.100;13.998;2022-12-08T04:14:23;10.85;;;2.58;;
14076;SDS011;7114;51.100;13.998;2022-12-08T04:16:49;8.48;;;2.40;;
14076;SDS011;7114;51.100;13.998;2022-12-08T04:19:15;10.07;;;2.65;;
14076;SDS011;7114;51.100;13.998;2022-12-08T04:21:42;11.60;;;2.30;;
14076;SDS011;7114;51.100;13.998;2022-12-08T04:24:08;7.95;;;2.25;;
14076;SDS011;7114;51.100;13.998;2022-12-08T04:26:34;8.48;;;2.30;;
14076;SDS011;7114;51.100;13.998;2022-12-08T04:29:02;10.00;;;2.65;;
14076;SDS011;7114;51.100;13.998;2022-12-08T04:31:29;9.07;;;2.33;;
14076;SDS011;7114;51.100;13.998;2022-12-08T04:33:55;10.70;;;2.57;;
14076;SDS011;7114;51.100;13.998;2022-12-08T04:36:22;9.45;;;2.65;;
14076;SDS011;7114;51.100;13.998;2022-12-08T04:38:48;10.20;;;2.50;;
14076;SDS011;7114;51.100;13.998;2022-12-08T04:41:15;9.73;;;2.70;;
14076;SDS011;7114;51.100;13.998;2022-12-08T04:43:41;8.80;;;2.63;;
14076;SDS011;7114;51.100;13.998;2022-12-08T04:46:10;8.63;;;2.27;;
14076;SDS011;7114;51.100;13.998;2022-12-08T04:48:37;10.25;;;2.10;;
14076;SDS011;7114;51.100;13.998;2022-12-08T04:51:04;9.50;;;2.95;;
14076;SDS011;7114;51.100;13.998;2022-12-08T04:53:31;9.50;;;2.67;;
14076;SDS011;7114;51.100;13.998;2022-12-08T04:55:57;10.20;;;2.75;;
14076;SDS011;7114;51.100;13.998;2022-12-08T04:58:24;9.80;;;2.60;;
14076;SDS011;7114;51.100;13.998;2022-12-08T05:00:50;8.98;;;2.85;;
14076;SDS011;7114;51.100;13.998;2022-12-08T05:03:18;10.13;;;2.97;;
14076;SDS011;7114;51.100;13.998;2022-12-08T05:05:44;8.82;;;2.63;;
14076;SDS011;7114;51.100;13.998;2022-12-08T05:08:11;9.45;;;2.78;;
14076;SDS011;7114;51.100;13.998;2022-12-08T05:10:37;10.80;;;2.60;;
14076;SDS011;7114;51.100;13.998;2022-12-08T05:13:04;11.45;;;2.85;;
14076;SDS011;7114;51.100;13.998;2022-12-08T05:15:30;9.60;;;3.17;;
14076;SDS011;7114;51.100;13.998;2022-12-08T05:17:57;9.05;;;2.75;;
14076;SDS011;7114;51.100;13.998;2022-12-08T05:20:24;8.77;;;2.50;;
14076;SDS011;7114;51.100;13.998;2022-12-08T05:22:51;10.10;;;2.53;;
14076;SDS011;7114;51.100;13.998;2022-12-08T05:25:18;12.20;;;2.70;;
14076;SDS011;7114;51.100;13.998;2022-12-08T05:27:44;11.32;;;3.20;;
14076;SDS011;7114;51.100;13.998;2022-12-08T05:30:10;11.18;;;3.20;;
14076;SDS011;7114;51.100;13.998;2022-12-08T05:32:37;10.50;;;3.30;;
14076;SDS011;7114;51.100;13.998;2022-12-08T05:35:04;9.80;;;2.80;;
14076;SDS011;7114;51.100;13.998;2022-12-08T05:37:32;9.65;;;3.10;;
14076;SDS011;7114;51.100;13.998;2022-12-08T05:39:58;9.73;;;2.95;;
14076;SDS011;7114;51.100;13.998;2022-12-08T05:42:25;10.40;;;2.88;;
14076;SDS011;7114;51.100;13.998;2022-12-08T05:44:51;10.68;;;2.60;;
14076;SDS011;7114;51.100;13.998;2022-12-08T05:47:17;10.33;;;2.97;;
14076;SDS011;7114;51.100;13.998;2022-12-08T05:49:44;10.23;;;3.10;;
14076;SDS011;7114;51.100;13.998;2022-12-08T05:52:10;11.18;;;2.92;;
14076;SDS011;7114;51.100;13.998;2022-12-08T05:54:38;11.40;;;3.00;;
14076;SDS011;7114;51.100;13.998;2022-12-08T05:57:04;9.13;;;2.80;;
14076;SDS011;7114;51.100;13.998;2022-12-08T05:59:31;9.33;;;2.77;;
14076;SDS011;7114;51.100;13.998;2022-12-08T06:01:57;9.68;;;3.13;;
14076;SDS011;7114;51.100;13.998;2022-12-08T06:04:24;9.80;;;3.17;;
14076;SDS011;7114;51.100;13.998;2022-12-08T06:06:50;11.23;;;3.30;;
14076;SDS011;7114;51.100;13.998;2022-12-08T06:09:16;10.88;;;2.67;;
14076;SDS011;7114;51.100;13.998;2022-12-08T06:11:44;8.23;;;2.40;;
14076;SDS011;7114;51.100;13.998;2022-12-08T06:14:11;11.75;;;2.92;;
14076;SDS011;7114;51.100;13.998;2022-12-08T06:16:37;8.68;;;2.40;;
14076;SDS011;7114;51.100;13.998;2022-12-08T06:19:04;9.07;;;2.30;;
14076;SDS011;7114;51.100;13.998;2022-12-08T06:21:30;9.13;;;2.63;;
14076;SDS011;7114;51.100;13.998;2022-12-08T06:23:56;10.03;;;2.70;;
14076;SDS011;7114;51.100;13.998;2022-12-08T06:26:23;10.93;;;2.55;;
14076;SDS011;7114;51.100;13.998;2022-12-08T06:28:51;9.18;;;2.50;;
14076;SDS011;7114;51.100;13.998;2022-12-08T06:31:18;7.63;;;2.20;;
14076;SDS011;7114;51.100;13.998;2022-12-08T06:33:46;9.25;;;2.70;;
14076;SDS011;7114;51.100;13.998;2022-12-08T06:36:13;9.77;;;2.50;;
14076;SDS011;7114;51.100;13.998;2022-12-08T06:38:40;10.48;;;3.03;;
14076;SDS011;7114;51.100;13.998;2022-12-08T06:41:07;10.23;;;2.45;;
14076;SDS011;7114;51.100;13.998;2022-12-08T06:43:33;9.07;;;2.80;;
14076;SDS011;7114;51.100;13.998;2022-12-08T06:46:03;10.50;;;3.00;;
14076;SDS011;7114;51.100;13.998;2022-12-08T06:48:30;9.03;;;2.57;;
14076;SDS011;7114;51.100;13.998;2022-12-08T06:50:59;7.32;;;2.40;;
14076;SDS011;7114;51.100;13.998;2022-12-08T06:53:31;9.95;;;2.75;;
14076;SDS011;7114;51.100;13.998;2022-12-08T06:55:57;10.52;;;2.70;;
14076;SDS011;7114;51.100;13.998;2022-12-08T06:58:23;9.85;;;2.45;;
14076;SDS011;7114;51.100;13.998;2022-12-08T07:00:50;10.17;;;3.00;;
14076;SDS011;7114;51.100;13.998;2022-12-08T07:03:17;8.57;;;2.63;;
14076;SDS011;7114;51.100;13.998;2022-12-08T07:05:44;9.65;;;2.55;;
14076;SDS011;7114;51.100;13.998;2022-12-08T07:08:11;8.13;;;2.60;;
14076;SDS011;7114;51.100;13.998;2022-12-08T07:10:37;8.95;;;2.63;;
14076;SDS011;7114;51.100;13.998;2022-12-08T07:13:03;8.80;;;2.70;;
14076;SDS011;7114;51.100;13.998;2022-12-08T07:15:30;11.00;;;2.75;;
14076;SDS011;7114;51.100;13.998;2022-12-08T07:17:56;9.10;;;2.70;;
14076;SDS011;7114;51.100;13.998;2022-12-08T07:20:24;9.27;;;2.45;;
14076;SDS011;7114;51.100;13.998;2022-12-08T07:22:51;9.93;;;2.90;;
14076;SDS011;7114;51.100;13.998;2022-12-08T07:25:17;8.23;;;2.47;;
14076;SDS011;7114;51.100;13.998;2022-12-08T07:27:44;9.10;;;2.70;;
14076;SDS011;7114;51.100;13.998;2022-12-08T07:30:11;9.13;;;2.65;;
14076;SDS011;7114;51.100;13.998;2022-12-08T07:32:38;10.90;;;2.95;;
14076;SDS011;7114;51.100;13.998;2022-12-08T07:35:06;10.27;;;3.03;;
14076;SDS011;7114;51.100;13.998;2022-12-08T07:37:34;8.50;;;2.53;;
14076;SDS011;7114;51.100;13.998;2022-12-08T07:40:01;9.40;;;2.78;;
14076;SDS011;7114;51.100;13.998;2022-12-08T07:42:28;10.30;;;2.63;;
14076;SDS011;7114;51.100;13.998;2022-12-08T07:44:54;9.88;;;3.08;;
14076;SDS011;7114;51.100;13.998;2022-12-08T07:47:21;9.48;;;2.97;;
14076;SDS011;7114;51.100;13.998;2022-12-08T07:49:47;10.03;;;2.90;;
14076;SDS011;7114;51.100;13.998;2022-12-08T07:52:14;9.27;;;3.00;;
14076;SDS011;7114;51.100;13.998;2022-12-08T07:54:41;9.75;;;3.13;;
14076;SDS011;7114;51.100;13.998;2022-12-08T07:57:08;8.98;;;2.58;;
14076;SDS011;7114;51.100;13.998;2022-12-08T07:59:34;9.77;;;2.90;;
14076;SDS011;7114;51.100;13.998;2022-12-08T08:02:01;9.37;;;3.00;;
14076;SDS011;7114;51.100;13.998;2022-12-08T08:04:27;10.60;;;3.03;;
14076;SDS011;7114;51.100;13.998;2022-12-08T08:06:53;8.82;;;2.78;;
14076;SDS011;7114;51.100;13.998;2022-12-08T08:09:20;8.75;;;2.67;;
14076;SDS011;7114;51.100;13.998;2022-12-08T08:11:47;9.80;;;2.88;;
14076;SDS011;7114;51.100;13.998;2022-12-08T08:14:14;8.60;;;2.60;;
14076;SDS011;7114;51.100;13.998;2022-12-08T08:16:40;9.55;;;2.90;;
14076;SDS011;7114;51.100;13.998;2022-12-08T08:19:10;8.98;;;3.00;;
14076;SDS011;7114;51.100;13.998;2022-12-08T08:21:36;8.30;;;2.60;;
14076;SDS011;7114;51.100;13.998;2022-12-08T08:24:03;9.20;;;2.63;;
14076;SDS011;7114;51.100;13.998;2022-12-08T08:26:30;8.57;;;2.53;;
14076;SDS011;7114;51.100;13.998;2022-12-08T08:28:57;8.20;;;2.70;;
14076;SDS011;7114;51.100;13.998;2022-12-08T08:31:24;8.90;;;2.70;;
14076;SDS011;7114;51.100;13.998;2022-12-08T08:33:50;8.85;;;2.88;;
14076;SDS011;7114;51.100;13.998;2022-12-08T08:36:17;7.80;;;2.30;;
14076;SDS011;7114;51.100;13.998;2022-12-08T08:38:43;8.87;;;2.57;;
14076;SDS011;7114;51.100;13.998;2022-12-08T08:41:10;8.95;;;2.80;;
14076;SDS011;7114;51.100;13.998;2022-12-08T08:43:36;9.05;;;2.80;;
14076;SDS011;7114;51.100;13.998;2022-12-08T08:46:04;10.70;;;3.30;;
14076;SDS011;7114;51.100;13.998;2022-12-08T08:48:32;10.00;;;2.90;;
14076;SDS011;7114;51.100;13.998;2022-12-08T08:51:05;8.37;;;2.63;;
14076;SDS011;7114;51.100;13.998;2022-12-08T08:53:32;11.02;;;3.00;;
14076;SDS011;7114;51.100;13.998;2022-12-08T08:55:59;8.40;;;2.55;;
14076;SDS011;7114;51.100;13.998;2022-12-08T08:58:25;8.65;;;2.88;;
14076;SDS011;7114;51.100;13.998;2022-12-08T09:00:52;8.85;;;2.83;;
14076;SDS011;7114;51.100;13.998;2022-12-08T09:03:19;9.43;;;3.30;;
14076;SDS011;7114;51.100;13.998;2022-12-08T09:05:46;9.05;;;3.00;;
14076;SDS011;7114;51.100;13.998;2022-12-08T09:08:12;9.00;;;3.20;;
14076;SDS011;7114;51.100;13.998;2022-12-08T09:10:38;9.07;;;2.85;;
14076;SDS011;7114;51.100;13.998;2022-12-08T09:13:05;8.50;;;2.85;;
14076;SDS011;7114;51.100;13.998;2022-12-08T09:15:31;10.77;;;3.33;;
14076;SDS011;7114;51.100;13.998;2022-12-08T09:17:57;8.57;;;2.75;;
14076;SDS011;7114;51.100;13.998;2022-12-08T09:20:25;9.05;;;3.15;;
14076;SDS011;7114;51.100;13.998;2022-12-08T09:22:51;8.63;;;3.10;;
14076;SDS011;7114;51.100;13.998;2022-12-08T09:25:18;8.05;;;2.75;;
14076;SDS011;7114;51.100;13.998;2022-12-08T09:27:44;8.67;;;2.87;;
14076;SDS011;7114;51.100;13.998;2022-12-08T09:30:11;8.85;;;2.60;;
14076;SDS011;7114;51.100;13.998;2022-12-08T09:32:38;8.80;;;2.80;;
14076;SDS011;7114;51.100;13.998;2022-12-08T09:35:05;9.45;;;3.13;;
14076;SDS011;7114;51.100;13.998;2022-12-08T09:37:33;9.18;;;3.15;;
14076;SDS011;7114;51.100;13.998;2022-12-08T09:39:59;7.97;;;2.50;;
14076;SDS011;7114;51.100;13.998;2022-12-08T09:42:28;8.50;;;2.80;;
14076;SDS011;7114;51.100;13.998;2022-12-08T09:45:02;9.57;;;2.78;;
14076;SDS011;7114;51.100;13.998;2022-12-08T09:47:31;8.75;;;2.88;;
14076;SDS011;7114;51.100;13.998;2022-12-08T09:49:59;10.07;;;3.00;;
14076;SDS011;7114;51.100;13.998;2022-12-08T09:52:27;8.63;;;2.73;;
14076;SDS011;7114;51.100;13.998;2022-12-08T09:54:57;8.50;;;3.03;;
14076;SDS011;7114;51.100;13.998;2022-12-08T09:57:26;8.77;;;2.80;;
14076;SDS011;7114;51.100;13.998;2022-12-08T09:59:54;9.10;;;2.75;;
14076;SDS011;7114;51.100;13.998;2022-12-08T10:02:26;8.27;;;2.75;;
14076;SDS011;7114;51.100;13.998;2022-12-08T10:04:54;8.70;;;2.73;;
14076;SDS011;7114;51.100;13.998;2022-12-08T10:07:23;7.80;;;2.42;;
14076;SDS011;7114;51.100;13.998;2022-12-08T10:09:56;8.60;;;3.00;;
14076;SDS011;7114;51.100;13.998;2022-12-08T10:12:29;7.80;;;2.88;;
14076;SDS011;7114;51.100;13.998;2022-12-08T10:15:02;8.80;;;2.85;;
14076;SDS011;7114;51.100;13.998;2022-12-08T10:17:36;7.90;;;2.70;;
14076;SDS011;7114;51.100;13.998;2022-12-08T10:20:09;9.35;;;3.20;;
14076;SDS011;7114;51.100;13.998;2022-12-08T10:22:37;7.75;;;2.92;;
14076;SDS011;7114;51.100;13.998;2022-12-08T10:25:06;8.40;;;3.15;;
14076;SDS011;7114;51.100;13.998;2022-12-08T10:27:36;8.48;;;3.60;;
14076;SDS011;7114;51.100;13.998;2022-12-08T10:30:05;8.73;;;3.33;;
14076;SDS011;7114;51.100;13.998;2022-12-08T10:32:35;8.55;;;3.53;;
14076;SDS011;7114;51.100;13.998;2022-12-08T10:35:03;9.02;;;3.50;;
14076;SDS011;7114;51.100;13.998;2022-12-08T10:37:31;9.05;;;3.67;;
14076;SDS011;7114;51.100;13.998;2022-12-08T10:39:57;9.18;;;3.60;;
14076;SDS011;7114;51.100;13.998;2022-12-08T10:42:27;8.00;;;3.23;;
14076;SDS011;7114;51.100;13.998;2022-12-08T10:44:59;8.65;;;3.60;;
14076;SDS011;7114;51.100;13.998;2022-12-08T10:47:29;8.68;;;3.45;;
14076;SDS011;7114;51.100;13.998;2022-12-08T10:50:08;7.97;;;3.45;;
14076;SDS011;7114;51.100;13.998;2022-12-08T10:52:43;7.78;;;3.00;;
14076;SDS011;7114;51.100;13.998;2022-12-08T10:55:13;9.20;;;3.43;;
14076;SDS011;7114;51.100;13.998;2022-12-08T10:57:41;8.77;;;3.35;;
14076;SDS011;7114;51.100;13.998;2022-12-08T11:00:10;8.23;;;3.38;;
14076;SDS011;7114;51.100;13.998;2022-12-08T11:02:48;8.43;;;3.40;;
14076;SDS011;7114;51.100;13.998;2022-12-08T11:05:16;8.73;;;3.50;;
14076;SDS011;7114;51.100;13.998;2022-12-08T11:07:45;8.17;;;3.50;;
14076;SDS011;7114;51.100;13.998;2022-12-08T11:10:14;9.32;;;3.38;;
14076;SDS011;7114;51.100;13.998;2022-12-08T11:12:44;8.82;;;3.08;;
14076;SDS011;7114;51.100;13.998;2022-12-08T11:15:13;8.23;;;3.08;;
14076;SDS011;7114;51.100;13.998;2022-12-08T11:17:40;8.30;;;3.30;;
14076;SDS011;7114;51.100;13.998;2022-12-08T11:20:18;8.23;;;2.80;;
14076;SDS011;7114;51.100;13.998;2022-12-08T11:22:49;8.45;;;3.13;;
14076;SDS011;7114;51.100;13.998;2022-12-08T11:25:18;10.40;;;3.80;;
14076;SDS011;7114;51.100;13.998;2022-12-08T11:27:48;8.82;;;3.40;;
14076;SDS011;7114;51.100;13.998;2022-12-08T11:30:16;8.32;;;3.08;;
14076;SDS011;7114;51.100;13.998;2022-12-08T11:32:45;9.40;;;3.50;;
14076;SDS011;7114;51.100;13.998;2022-12-08T11:35:16;8.02;;;2.90;;
14076;SDS011;7114;51.100;13.998;2022-12-08T11:37:46;9.18;;;3.20;;
14076;SDS011;7114;51.100;13.998;2022-12-08T11:40:14;9.68;;;3.33;;
14076;SDS011;7114;51.100;13.998;2022-12-08T11:42:45;8.38;;;2.97;;
14076;SDS011;7114;51.100;13.998;2022-12-08T11:45:18;9.40;;;3.37;;
14076;SDS011;7114;51.100;13.998;2022-12-08T11:47:48;8.52;;;3.50;;
14076;SDS011;7114;51.100;13.998;2022-12-08T11:50:19;9.70;;;3.17;;
14076;SDS011;7114;51.100;13.998;2022-12-08T11:52:48;8.63;;;3.08;;
14076;SDS011;7114;51.100;13.998;2022-12-08T11:55:21;9.20;;;3.00;;
14076;SDS011;7114;51.100;13.998;2022-12-08T11:57:57;7.80;;;2.80;;
14076;SDS011;7114;51.100;13.998;2022-12-08T12:00:27;7.82;;;2.58;;
14076;SDS011;7114;51.100;13.998;2022-12-08T12:02:55;7.70;;;2.72;;
14076;SDS011;7114;51.100;13.998;2022-12-08T12:05:27;7.40;;;2.65;;
14076;SDS011;7114;51.100;13.998;2022-12-08T12:07:58;7.40;;;2.42;;
14076;SDS011;7114;51.100;13.998;2022-12-08T12:10:37;7.80;;;2.50;;
14076;SDS011;7114;51.100;13.998;2022-12-08T12:16:23;7.15;;;1.92;;
14076;SDS011;7114;51.100;13.998;2022-12-08T12:18:57;7.50;;;2.05;;
14076;SDS011;7114;51.100;13.998;2022-12-08T12:21:26;6.60;;;1.58;;
14076;SDS011;7114;51.100;13.998;2022-12-08T12:23:56;6.27;;;1.77;;
14076;SDS011;7114;51.100;13.998;2022-12-08T12:26:25;7.32;;;1.80;;
14076;SDS011;7114;51.100;13.998;2022-12-08T12:28:56;6.20;;;1.83;;
14076;SDS011;7114;51.100;13.998;2022-12-08T12:31:24;6.40;;;1.73;;
14076;SDS011;7114;51.100;13.998;2022-12-08T12:33:52;6.43;;;1.60;;
14076;SDS011;7114;51.100;13.998;2022-12-08T12:36:20;6.80;;;2.07;;
14076;SDS011;7114;51.100;13.998;2022-12-08T12:38:47;7.18;;;1.90;;
14076;SDS011;7114;51.100;13.998;2022-12-08T12:41:29;6.78;;;2.05;;
14076;SDS011;7114;51.100;13.998;2022-12-08T12:47:05;6.68;;;1.90;;
14076;SDS011;7114;51.100;13.998;2022-12-08T12:49:48;6.70;;;1.90;;
14076;SDS011;7114;51.100;13.998;2022-12-08T12:55:20;6.05;;;1.38;;
14076;SDS011;7114;51.100;13.998;2022-12-08T12:58:18;6.57;;;1.60;;
14076;SDS011;7114;51.100;13.998;2022-12-08T13:04:05;5.93;;;1.37;;
14076;SDS011;7114;51.100;13.998;2022-12-08T13:06:34;6.05;;;1.50;;
14076;SDS011;7114;51.100;13.998;2022-12-08T13:09:03;8.15;;;1.65;;
14076;SDS011;7114;51.100;13.998;2022-12-08T13:11:38;5.53;;;1.20;;
14076;SDS011;7114;51.100;13.998;2022-12-08T13:14:13;5.93;;;1.70;;
14076;SDS011;7114;51.100;13.998;2022-12-08T13:16:51;6.17;;;1.83;;
14076;SDS011;7114;51.100;13.998;2022-12-08T13:19:23;6.72;;;1.83;;
14076;SDS011;7114;51.100;13.998;2022-12-08T13:21:49;12.20;;;4.00;;
14076;SDS011;7114;51.100;13.998;2022-12-08T13:24:26;13.90;;;4.60;;
14076;SDS011;7114;51.100;13.998;2022-12-08T13:33:07;14.52;;;5.10;;
14076;SDS011;7114;51.100;13.998;2022-12-08T13:35:37;10.73;;;3.95;;
14076;SDS011;7114;51.100;13.998;2022-12-08T13:38:05;9.85;;;3.05;;
14076;SDS011;7114;51.100;13.998;2022-12-08T13:40:32;9.15;;;3.22;;
14076;SDS011;7114;51.100;13.998;2022-12-08T13:43:03;8.53;;;3.00;;
14076;SDS011;7114;51.100;13.998;2022-12-08T13:45:31;7.63;;;2.40;;
14076;SDS011;7114;51.100;13.998;2022-12-08T13:48:02;7.28;;;1.88;;
14076;SDS011;7114;51.100;13.998;2022-12-08T13:50:32;6.72;;;2.00;;
14076;SDS011;7114;51.100;13.998;2022-12-08T13:53:02;6.63;;;1.95;;
14076;SDS011;7114;51.100;13.998;2022-12-08T13:55:36;6.90;;;1.63;;
14076;SDS011;7114;51.100;13.998;2022-12-08T13:58:05;7.22;;;1.85;;
14076;SDS011;7114;51.100;13.998;2022-12-08T14:00:32;6.85;;;1.75;;
14076;SDS011;7114;51.100;13.998;2022-12-08T14:02:58;8.15;;;2.10;;
14076;SDS011;7114;51.100;13.998;2022-12-08T14:05:26;6.90;;;1.90;;
14076;SDS011;7114;51.100;13.998;2022-12-08T14:07:54;8.03;;;2.17;;
14076;SDS011;7114;51.100;13.998;2022-12-08T14:10:23;8.18;;;2.35;;
14076;SDS011;7114;51.100;13.998;2022-12-08T14:12:53;7.32;;;2.25;;
14076;SDS011;7114;51.100;13.998;2022-12-08T14:15:21;8.02;;;2.33;;
14076;SDS011;7114;51.100;13.998;2022-12-08T14:17:51;6.25;;;1.80;;
14076;SDS011;7114;51.100;13.998;2022-12-08T14:20:19;7.20;;;2.10;;
14076;SDS011;7114;51.100;13.998;2022-12-08T14:22:49;7.63;;;2.00;;
14076;SDS011;7114;51.100;13.998;2022-12-08T14:25:16;8.65;;;2.00;;
14076;SDS011;7114;51.100;13.998;2022-12-08T14:27:45;7.22;;;1.95;;
14076;SDS011;7114;51.100;13.998;2022-12-08T14:30:15;7.30;;;2.13;;
14076;SDS011;7114;51.100;13.998;2022-12-08T14:32:46;7.27;;;1.90;;
14076;SDS011;7114;51.100;13.998;2022-12-08T14:35:17;7.30;;;1.58;;
14076;SDS011;7114;51.100;13.998;2022-12-08T14:37:46;8.35;;;2.10;;
14076;SDS011;7114;51.100;13.998;2022-12-08T14:40:17;7.32;;;2.08;;
14076;SDS011;7114;51.100;13.998;2022-12-08T14:42:49;6.80;;;1.80;;
14076;SDS011;7114;51.100;13.998;2022-12-08T14:45:16;7.93;;;2.17;;
14076;SDS011;7114;51.100;13.998;2022-12-08T14:47:44;7.65;;;1.80;;
14076;SDS011;7114;51.100;13.998;2022-12-08T14:53:04;7.25;;;1.90;;
14076;SDS011;7114;51.100;13.998;2022-12-08T14:55:36;8.80;;;1.92;;
14076;SDS011;7114;51.100;13.998;2022-12-08T14:58:04;6.83;;;1.80;;
14076;SDS011;7114;51.100;13.998;2022-12-08T15:00:30;6.82;;;1.80;;
14076;SDS011;7114;51.100;13.998;2022-12-08T15:02:56;7.07;;;1.95;;
14076;SDS011;7114;51.100;13.998;2022-12-08T15:05:25;7.15;;;1.73;;
14076;SDS011;7114;51.100;13.998;2022-12-08T15:07:55;7.55;;;2.05;;
14076;SDS011;7114;51.100;13.998;2022-12-08T15:10:25;7.87;;;1.90;;
14076;SDS011;7114;51.100;13.998;2022-12-08T15:13:00;7.35;;;1.65;;
14076;SDS011;7114;51.100;13.998;2022-12-08T15:15:31;7.72;;;1.85;;
14076;SDS011;7114;51.100;13.998;2022-12-08T15:18:10;6.75;;;1.50;;